sensor_id;sensor_type;location;lat;lon;timestamp;pressure;altitude;pressure_sealevel;temperature;humidity
29379;BME280;16362;47.202;15.258;2023-03-21T00:00:30;96321.88;;;4.41;100.00
29379;BME280;16362;47.202;15.258;2023-03-21T00:02:57;96325.09;;;4.44;100.00
29379;BME280;16362;47.202;15.258;2023-03-21T00:05:23;96318.56;;;4.48;100.00
29379;BME280;16362;47.202;15.258;2023-03-21T00:07:50;96316.59;;;4.50;100.00
29379;BME280;16362;47.202;15.258;2023-03-21T00:10:17;96320.41;;;4.58;100.00
29379;BME280;16362;47.202;15.258;2023-03-21T00:13:02;96310.25;;;4.63;100.00
29379;BME280;16362;47.202;15.258;2023-03-21T00:15:30;96314.69;;;4.62;100.00
29379;BME280;16362;47.202;15.258;2023-03-21T00:18:13;96315.25;;;4.66;100.00
29379;BME280;16362;47.202;15.258;2023-03-21T00:20:41;96318.59;;;4.68;100.00
29379;BME280;16362;47.202;15.258;2023-03-21T00:23:12;96318.88;;;4.75;100.00
29379;BME280;16362;47.202;15.258;2023-03-21T00:25:39;96319.72;;;4.75;100.00
29379;BME280;16362;47.202;15.258;2023-03-21T00:28:05;96314.44;;;4.75;100.00
29379;BME280;16362;47.202;15.258;2023-03-21T00:30:34;96307.06;;;4.79;100.00
29379;BME280;16362;47.202;15.258;2023-03-21T00:33:00;96306.38;;;4.77;100.00
29379;BME280;16362;47.202;15.258;2023-03-21T00:35:45;96308.88;;;4.78;100.00
29379;BME280;16362;47.202;15.258;2023-03-21T00:38:31;96309.69;;;4.79;100.00
29379;BME280;16362;47.202;15.258;2023-03-21T00:40:59;96311.09;;;4.83;100.00
29379;BME280;16362;47.202;15.258;2023-03-21T00:43:32;96303.72;;;4.86;100.00
29379;BME280;16362;47.202;15.258;2023-03-21T00:45:59;96306.38;;;4.86;100.00
29379;BME280;16362;47.202;15.258;2023-03-21T00:55:06;96295.22;;;4.83;100.00
29379;BME280;16362;47.202;15.258;2023-03-21T00:57:33;96294.41;;;4.82;100.00
29379;BME280;16362;47.202;15.258;2023-03-21T01:00:05;96298.00;;;4.81;100.00
29379;BME280;16362;47.202;15.258;2023-03-21T01:02:33;96296.09;;;4.83;100.00
29379;BME280;16362;47.202;15.258;2023-03-21T01:04:59;96289.13;;;4.82;100.00
29379;BME280;16362;47.202;15.258;2023-03-21T01:07:26;96288.84;;;4.85;100.00
29379;BME280;16362;47.202;15.258;2023-03-21T01:10:06;96291.34;;;4.77;100.00
29379;BME280;16362;47.202;15.258;2023-03-21T01:12:33;96282.72;;;4.75;100.00
29379;BME280;16362;47.202;15.258;2023-03-21T01:14:59;96283.25;;;4.69;100.00
29379;BME280;16362;47.202;15.258;2023-03-21T01:17:26;96285.22;;;4.67;100.00
29379;BME280;16362;47.202;15.258;2023-03-21T01:19:52;96288.09;;;4.64;100.00
29379;BME280;16362;47.202;15.258;2023-03-21T01:23:07;96287.81;;;4.57;100.00
29379;BME280;16362;47.202;15.258;2023-03-21T01:25:34;96282.53;;;4.47;100.00
29379;BME280;16362;47.202;15.258;2023-03-21T01:28:01;96283.50;;;4.46;100.00
29379;BME280;16362;47.202;15.258;2023-03-21T01:30:28;96273.78;;;4.47;100.00
29379;BME280;16362;47.202;15.258;2023-03-21T01:33:02;96271.28;;;4.45;100.00
29379;BME280;16362;47.202;15.258;2023-03-21T01:35:28;96276.94;;;4.41;100.00
29379;BME280;16362;47.202;15.258;2023-03-21T01:38:10;96272.63;;;4.39;100.00
29379;BME280;16362;47.202;15.258;2023-03-21T01:40:36;96280.56;;;4.39;100.00
29379;BME280;16362;47.202;15.258;2023-03-21T01:43:03;96269.88;;;4.41;100.00
29379;BME280;16362;47.202;15.258;2023-03-21T01:48:15;96267.75;;;4.35;100.00
29379;BME280;16362;47.202;15.258;2023-03-21T01:50:42;96267.19;;;4.31;100.00
29379;BME280;16362;47.202;15.258;2023-03-21T01:55:10;96263.66;;;4.11;100.00
29379;BME280;16362;47.202;15.258;2023-03-21T01:57:43;96262.53;;;4.04;100.00
29379;BME280;16362;47.202;15.258;2023-03-21T02:00:29;96255.44;;;4.04;100.00
29379;BME280;16362;47.202;15.258;2023-03-21T02:03:50;96244.84;;;3.95;100.00
29379;BME280;16362;47.202;15.258;2023-03-21T02:06:28;96245.38;;;3.88;100.00
29379;BME280;16362;47.202;15.258;2023-03-21T02:08:58;96238.56;;;3.86;100.00
29379;BME280;16362;47.202;15.258;2023-03-21T02:11:26;96234.78;;;3.79;100.00
29379;BME280;16362;47.202;15.258;2023-03-21T02:13:55;96242.38;;;3.72;100.00
29379;BME280;16362;47.202;15.258;2023-03-21T02:16:49;96240.16;;;3.67;100.00
29379;BME280;16362;47.202;15.258;2023-03-21T02:27:08;96232.84;;;3.50;100.00
29379;BME280;16362;47.202;15.258;2023-03-21T02:30:29;96226.03;;;3.47;100.00
29379;BME280;16362;47.202;15.258;2023-03-21T02:38:26;96231.41;;;3.36;100.00
29379;BME280;16362;47.202;15.258;2023-03-21T02:46:40;96240.22;;;3.25;100.00
29379;BME280;16362;47.202;15.258;2023-03-21T02:49:23;96240.34;;;3.24;100.00
29379;BME280;16362;47.202;15.258;2023-03-21T02:53:10;96242.59;;;3.28;100.00
29379;BME280;16362;47.202;15.258;2023-03-21T02:55:38;96240.34;;;3.24;100.00
29379;BME280;16362;47.202;15.258;2023-03-21T02:58:08;96241.59;;;3.19;100.00
29379;BME280;16362;47.202;15.258;2023-03-21T03:00:39;96241.00;;;3.16;100.00
29379;BME280;16362;47.202;15.258;2023-03-21T03:03:08;96244.72;;;3.13;100.00
29379;BME280;16362;47.202;15.258;2023-03-21T03:05:44;96248.19;;;3.14;100.00
29379;BME280;16362;47.202;15.258;2023-03-21T03:19:24;96243.47;;;2.75;100.00
29379;BME280;16362;47.202;15.258;2023-03-21T03:21:57;96248.16;;;2.72;100.00
29379;BME280;16362;47.202;15.258;2023-03-21T03:24:58;96255.94;;;2.73;100.00
29379;BME280;16362;47.202;15.258;2023-03-21T03:27:43;96249.69;;;2.74;100.00
29379;BME280;16362;47.202;15.258;2023-03-21T03:30:10;96251.50;;;2.74;100.00
29379;BME280;16362;47.202;15.258;2023-03-21T03:32:44;96242.88;;;2.72;100.00
29379;BME280;16362;47.202;15.258;2023-03-21T03:35:13;96242.31;;;2.68;100.00
29379;BME280;16362;47.202;15.258;2023-03-21T03:37:40;96238.97;;;2.66;100.00
29379;BME280;16362;47.202;15.258;2023-03-21T03:40:07;96241.47;;;2.67;100.00
29379;BME280;16362;47.202;15.258;2023-03-21T03:42:38;96245.31;;;2.63;100.00
29379;BME280;16362;47.202;15.258;2023-03-21T03:45:07;96243.41;;;2.65;100.00
29379;BME280;16362;47.202;15.258;2023-03-21T03:53:01;96237.94;;;2.57;100.00
29379;BME280;16362;47.202;15.258;2023-03-21T03:55:42;96245.09;;;2.55;100.00
29379;BME280;16362;47.202;15.258;2023-03-21T03:58:08;96244.41;;;2.53;100.00
29379;BME280;16362;47.202;15.258;2023-03-21T04:00:49;96243.19;;;2.57;100.00
29379;BME280;16362;47.202;15.258;2023-03-21T04:03:15;96237.00;;;2.47;100.00
29379;BME280;16362;47.202;15.258;2023-03-21T04:05:44;96238.34;;;2.41;100.00
29379;BME280;16362;47.202;15.258;2023-03-21T04:08:13;96239.53;;;2.37;100.00
29379;BME280;16362;47.202;15.258;2023-03-21T04:10:41;96239.91;;;2.32;100.00
29379;BME280;16362;47.202;15.258;2023-03-21T04:13:08;96234.75;;;2.31;100.00
29379;BME280;16362;47.202;15.258;2023-03-21T04:15:35;96240.28;;;2.28;100.00
29379;BME280;16362;47.202;15.258;2023-03-21T04:18:01;96246.75;;;2.24;100.00
29379;BME280;16362;47.202;15.258;2023-03-21T04:20:28;96247.72;;;2.23;100.00
29379;BME280;16362;47.202;15.258;2023-03-21T04:23:02;96239.81;;;2.23;100.00
29379;BME280;16362;47.202;15.258;2023-03-21T04:25:29;96246.41;;;2.17;100.00
29379;BME280;16362;47.202;15.258;2023-03-21T04:27:59;96246.75;;;2.12;100.00
29379;BME280;16362;47.202;15.258;2023-03-21T04:30:26;96252.41;;;2.08;100.00
29379;BME280;16362;47.202;15.258;2023-03-21T04:32:52;96245.84;;;2.02;100.00
29379;BME280;16362;47.202;15.258;2023-03-21T04:35:26;96246.09;;;1.99;100.00
29379;BME280;16362;47.202;15.258;2023-03-21T04:37:53;96248.81;;;1.97;100.00
29379;BME280;16362;47.202;15.258;2023-03-21T04:40:20;96254.94;;;1.98;100.00
29379;BME280;16362;47.202;15.258;2023-03-21T04:42:47;96255.66;;;2.00;100.00
29379;BME280;16362;47.202;15.258;2023-03-21T04:45:14;96250.25;;;2.01;100.00
29379;BME280;16362;47.202;15.258;2023-03-21T04:47:41;96254.56;;;2.02;100.00
29379;BME280;16362;47.202;15.258;2023-03-21T04:50:08;96250.50;;;1.98;100.00
29379;BME280;16362;47.202;15.258;2023-03-21T04:52:35;96259.47;;;1.96;100.00
29379;BME280;16362;47.202;15.258;2023-03-21T04:55:02;96262.59;;;1.90;100.00
29379;BME280;16362;47.202;15.258;2023-03-21T04:57:29;96264.50;;;1.88;100.00
29379;BME280;16362;47.202;15.258;2023-03-21T04:59:55;96267.28;;;1.86;100.00
29379;BME280;16362;47.202;15.258;2023-03-21T05:02:22;96272.78;;;1.83;100.00
29379;BME280;16362;47.202;15.258;2023-03-21T05:04:48;96264.16;;;1.81;100.00
29379;BME280;16362;47.202;15.258;2023-03-21T05:07:15;96265.00;;;1.81;100.00
29379;BME280;16362;47.202;15.258;2023-03-21T05:09:41;96263.09;;;1.83;100.00
29379;BME280;16362;47.202;15.258;2023-03-21T05:14:07;96267.72;;;1.80;100.00
29379;BME280;16362;47.202;15.258;2023-03-21T05:16:34;96272.03;;;1.81;100.00
29379;BME280;16362;47.202;15.258;2023-03-21T05:19:01;96271.47;;;1.77;100.00
29379;BME280;16362;47.202;15.258;2023-03-21T05:21:31;96275.19;;;1.75;100.00
29379;BME280;16362;47.202;15.258;2023-03-21T05:24:08;96283.41;;;1.70;100.00
29379;BME280;16362;47.202;15.258;2023-03-21T05:26:38;96275.41;;;1.60;100.00
29379;BME280;16362;47.202;15.258;2023-03-21T05:29:04;96278.84;;;1.61;100.00
29379;BME280;16362;47.202;15.258;2023-03-21T05:31:32;96286.41;;;1.65;100.00
29379;BME280;16362;47.202;15.258;2023-03-21T05:33:58;96279.81;;;1.71;100.00
29379;BME280;16362;47.202;15.258;2023-03-21T05:36:25;96279.59;;;1.74;100.00
29379;BME280;16362;47.202;15.258;2023-03-21T05:38:52;96285.69;;;1.75;100.00
29379;BME280;16362;47.202;15.258;2023-03-21T05:41:18;96283.16;;;1.73;100.00
29379;BME280;16362;47.202;15.258;2023-03-21T05:43:46;96288.78;;;1.68;100.00
29379;BME280;16362;47.202;15.258;2023-03-21T05:48:40;96290.69;;;1.55;100.00
29379;BME280;16362;47.202;15.258;2023-03-21T05:51:07;96290.44;;;1.58;100.00
29379;BME280;16362;47.202;15.258;2023-03-21T05:53:34;96293.19;;;1.57;100.00
29379;BME280;16362;47.202;15.258;2023-03-21T05:57:11;96288.56;;;1.60;100.00
29379;BME280;16362;47.202;15.258;2023-03-21T05:59:38;96286.75;;;1.61;100.00
29379;BME280;16362;47.202;15.258;2023-03-21T06:02:05;96288.44;;;1.62;100.00
29379;BME280;16362;47.202;15.258;2023-03-21T06:04:31;96290.59;;;1.68;100.00
29379;BME280;16362;47.202;15.258;2023-03-21T06:06:58;96291.31;;;1.81;100.00
29379;BME280;16362;47.202;15.258;2023-03-21T06:10:56;96296.00;;;2.56;100.00
29379;BME280;16362;47.202;15.258;2023-03-21T06:13:23;96292.25;;;3.02;100.00
29379;BME280;16362;47.202;15.258;2023-03-21T06:15:49;96287.66;;;3.46;100.00
29379;BME280;16362;47.202;15.258;2023-03-21T06:18:16;96285.75;;;3.69;100.00
29379;BME280;16362;47.202;15.258;2023-03-21T06:20:43;96276.22;;;3.88;100.00
29379;BME280;16362;47.202;15.258;2023-03-21T06:23:10;96277.75;;;4.31;100.00
29379;BME280;16362;47.202;15.258;2023-03-21T06:25:36;96278.34;;;4.54;100.00
29379;BME280;16362;47.202;15.258;2023-03-21T06:28:03;96282.56;;;4.77;100.00
29379;BME280;16362;47.202;15.258;2023-03-21T06:33:01;96275.19;;;5.10;100.00
29379;BME280;16362;47.202;15.258;2023-03-21T06:35:28;96276.69;;;5.42;100.00
29379;BME280;16362;47.202;15.258;2023-03-21T06:37:54;96281.38;;;5.67;100.00
29379;BME280;16362;47.202;15.258;2023-03-21T06:40:23;96268.94;;;5.78;100.00
29379;BME280;16362;47.202;15.258;2023-03-21T06:42:50;96275.47;;;6.21;100.00
29379;BME280;16362;47.202;15.258;2023-03-21T06:45:18;96274.97;;;6.63;100.00
29379;BME280;16362;47.202;15.258;2023-03-21T06:47:44;96273.78;;;6.94;100.00
29379;BME280;16362;47.202;15.258;2023-03-21T06:50:11;96271.97;;;7.12;100.00
29379;BME280;16362;47.202;15.258;2023-03-21T06:52:38;96266.53;;;7.40;100.00
29379;BME280;16362;47.202;15.258;2023-03-21T06:55:05;96270.72;;;7.69;100.00
29379;BME280;16362;47.202;15.258;2023-03-21T06:57:31;96269.91;;;8.03;100.00
29379;BME280;16362;47.202;15.258;2023-03-21T06:59:58;96262.84;;;8.20;94.18
29379;BME280;16362;47.202;15.258;2023-03-21T07:02:24;96274.34;;;8.29;95.77
29379;BME280;16362;47.202;15.258;2023-03-21T07:04:51;96263.22;;;8.33;94.77
29379;BME280;16362;47.202;15.258;2023-03-21T07:07:19;96270.94;;;8.45;94.54
29379;BME280;16362;47.202;15.258;2023-03-21T07:09:45;96268.88;;;8.73;94.47
29379;BME280;16362;47.202;15.258;2023-03-21T07:12:12;96267.25;;;8.97;93.09
29379;BME280;16362;47.202;15.258;2023-03-21T07:14:38;96272.09;;;9.01;92.57
29379;BME280;16362;47.202;15.258;2023-03-21T07:17:05;96263.28;;;9.17;93.39
29379;BME280;16362;47.202;15.258;2023-03-21T07:19:31;96256.63;;;9.13;91.74
29379;BME280;16362;47.202;15.258;2023-03-21T07:21:58;96262.44;;;9.08;92.20
29379;BME280;16362;47.202;15.258;2023-03-21T07:24:26;96257.13;;;9.41;92.13
29379;BME280;16362;47.202;15.258;2023-03-21T07:26:53;96252.25;;;9.78;88.74
29379;BME280;16362;47.202;15.258;2023-03-21T07:29:19;96254.38;;;9.99;87.97
29379;BME280;16362;47.202;15.258;2023-03-21T07:31:48;96256.16;;;10.15;88.81
29379;BME280;16362;47.202;15.258;2023-03-21T07:34:15;96252.72;;;10.46;86.44
29379;BME280;16362;47.202;15.258;2023-03-21T07:36:42;96245.09;;;10.66;87.48
29379;BME280;16362;47.202;15.258;2023-03-21T07:39:08;96245.28;;;10.96;85.42
29379;BME280;16362;47.202;15.258;2023-03-21T07:41:35;96248.56;;;11.21;83.49
29379;BME280;16362;47.202;15.258;2023-03-21T07:44:01;96242.84;;;11.33;81.09
29379;BME280;16362;47.202;15.258;2023-03-21T07:46:28;96245.34;;;11.49;81.71
29379;BME280;16362;47.202;15.258;2023-03-21T07:48:55;96240.03;;;11.64;80.63
29379;BME280;16362;47.202;15.258;2023-03-21T07:51:22;96239.25;;;11.93;80.79
29379;BME280;16362;47.202;15.258;2023-03-21T07:53:48;96230.78;;;12.20;79.83
29379;BME280;16362;47.202;15.258;2023-03-21T07:56:15;96231.25;;;12.38;80.68
29379;BME280;16362;47.202;15.258;2023-03-21T07:58:42;96226.09;;;12.37;77.99
29379;BME280;16362;47.202;15.258;2023-03-21T08:01:08;96225.59;;;12.48;79.39
29379;BME280;16362;47.202;15.258;2023-03-21T08:03:35;96231.25;;;12.23;75.27
29379;BME280;16362;47.202;15.258;2023-03-21T08:06:01;96227.44;;;12.18;74.30
29379;BME280;16362;47.202;15.258;2023-03-21T08:08:28;96222.94;;;12.18;74.35
29379;BME280;16362;47.202;15.258;2023-03-21T08:10:54;96229.78;;;12.06;75.39
29379;BME280;16362;47.202;15.258;2023-03-21T08:13:21;96219.81;;;12.00;74.75
29379;BME280;16362;47.202;15.258;2023-03-21T08:15:48;96218.31;;;12.12;77.56
29379;BME280;16362;47.202;15.258;2023-03-21T08:18:14;96217.31;;;12.28;75.43
29379;BME280;16362;47.202;15.258;2023-03-21T08:20:41;96213.91;;;12.34;75.31
29379;BME280;16362;47.202;15.258;2023-03-21T08:23:07;96209.59;;;12.55;74.75
29379;BME280;16362;47.202;15.258;2023-03-21T08:25:34;96206.31;;;12.74;74.03
29379;BME280;16362;47.202;15.258;2023-03-21T08:28:02;96205.88;;;12.71;74.33
29379;BME280;16362;47.202;15.258;2023-03-21T08:30:28;96204.94;;;13.00;74.99
29379;BME280;16362;47.202;15.258;2023-03-21T08:32:59;96200.00;;;13.25;73.64
29379;BME280;16362;47.202;15.258;2023-03-21T08:35:27;96199.50;;;13.37;73.08
29379;BME280;16362;47.202;15.258;2023-03-21T08:37:54;96195.06;;;13.44;70.57
29379;BME280;16362;47.202;15.258;2023-03-21T08:40:21;96194.81;;;13.39;64.56
29379;BME280;16362;47.202;15.258;2023-03-21T08:42:47;96196.53;;;13.46;58.24
29379;BME280;16362;47.202;15.258;2023-03-21T08:45:15;96191.44;;;13.93;59.77
29379;BME280;16362;47.202;15.258;2023-03-21T08:47:42;96189.16;;;13.90;55.83
29379;BME280;16362;47.202;15.258;2023-03-21T08:50:10;96180.50;;;13.88;55.28
29379;BME280;16362;47.202;15.258;2023-03-21T08:52:37;96179.16;;;13.71;55.02
29379;BME280;16362;47.202;15.258;2023-03-21T08:55:03;96183.88;;;14.04;53.56
29379;BME280;16362;47.202;15.258;2023-03-21T08:57:30;96187.63;;;14.09;52.57
29379;BME280;16362;47.202;15.258;2023-03-21T08:59:56;96191.91;;;14.39;52.31
29379;BME280;16362;47.202;15.258;2023-03-21T09:02:23;96180.47;;;14.72;52.98
29379;BME280;16362;47.202;15.258;2023-03-21T09:04:49;96184.22;;;14.91;49.21
29379;BME280;16362;47.202;15.258;2023-03-21T09:07:20;96178.66;;;14.86;46.66
29379;BME280;16362;47.202;15.258;2023-03-21T09:09:47;96174.38;;;14.49;47.32
29379;BME280;16362;47.202;15.258;2023-03-21T09:12:28;96167.97;;;14.44;47.79
29379;BME280;16362;47.202;15.258;2023-03-21T09:14:54;96166.91;;;14.38;48.75
29379;BME280;16362;47.202;15.258;2023-03-21T09:17:21;96164.66;;;14.48;48.55
29379;BME280;16362;47.202;15.258;2023-03-21T09:19:48;96157.13;;;14.65;48.20
29379;BME280;16362;47.202;15.258;2023-03-21T09:22:16;96161.09;;;14.83;47.07
29379;BME280;16362;47.202;15.258;2023-03-21T09:24:43;96155.28;;;14.79;47.79
29379;BME280;16362;47.202;15.258;2023-03-21T09:27:13;96156.09;;;14.80;47.21
29379;BME280;16362;47.202;15.258;2023-03-21T09:29:40;96153.44;;;14.25;47.83
29379;BME280;16362;47.202;15.258;2023-03-21T09:32:10;96157.56;;;14.27;49.09
29379;BME280;16362;47.202;15.258;2023-03-21T09:34:38;96150.94;;;14.23;48.60
29379;BME280;16362;47.202;15.258;2023-03-21T09:37:07;96166.44;;;14.76;50.73
29379;BME280;16362;47.202;15.258;2023-03-21T09:39:39;96154.69;;;14.97;46.73
29379;BME280;16362;47.202;15.258;2023-03-21T09:42:12;96157.31;;;14.77;48.05
29379;BME280;16362;47.202;15.258;2023-03-21T09:47:20;96155.59;;;14.49;46.97
29379;BME280;16362;47.202;15.258;2023-03-21T09:50:21;96153.50;;;14.45;47.02
29379;BME280;16362;47.202;15.258;2023-03-21T09:55:16;96152.06;;;14.49;46.00
29379;BME280;16362;47.202;15.258;2023-03-21T09:57:45;96143.91;;;14.84;46.60
29379;BME280;16362;47.202;15.258;2023-03-21T10:00:20;96145.66;;;14.50;47.40
29379;BME280;16362;47.202;15.258;2023-03-21T10:02:51;96138.16;;;15.01;45.66
29379;BME280;16362;47.202;15.258;2023-03-21T10:05:23;96131.97;;;15.27;45.71
29379;BME280;16362;47.202;15.258;2023-03-21T10:10:37;96122.56;;;15.90;45.23
29379;BME280;16362;47.202;15.258;2023-03-21T10:13:10;96120.53;;;15.65;43.60
29379;BME280;16362;47.202;15.258;2023-03-21T10:15:39;96132.78;;;15.34;47.17
29379;BME280;16362;47.202;15.258;2023-03-21T10:18:06;96118.25;;;15.69;44.92
29379;BME280;16362;47.202;15.258;2023-03-21T10:20:34;96117.41;;;15.88;43.62
29379;BME280;16362;47.202;15.258;2023-03-21T10:23:05;96116.78;;;15.79;42.81
29379;BME280;16362;47.202;15.258;2023-03-21T10:25:34;96115.59;;;15.55;43.44
29379;BME280;16362;47.202;15.258;2023-03-21T10:28:03;96107.09;;;15.58;43.37
29379;BME280;16362;47.202;15.258;2023-03-21T10:33:02;96106.94;;;15.26;43.90
29379;BME280;16362;47.202;15.258;2023-03-21T10:35:31;96099.25;;;15.50;45.16
29379;BME280;16362;47.202;15.258;2023-03-21T10:37:59;96090.16;;;15.51;44.28
29379;BME280;16362;47.202;15.258;2023-03-21T10:40:26;96101.97;;;15.23;44.63
29379;BME280;16362;47.202;15.258;2023-03-21T10:42:54;96096.19;;;15.40;43.00
29379;BME280;16362;47.202;15.258;2023-03-21T10:45:20;96093.09;;;15.29;42.79
29379;BME280;16362;47.202;15.258;2023-03-21T10:47:48;96097.00;;;15.47;43.07
29379;BME280;16362;47.202;15.258;2023-03-21T10:50:17;96089.75;;;15.27;43.64
29379;BME280;16362;47.202;15.258;2023-03-21T10:52:47;96091.00;;;15.25;43.96
29379;BME280;16362;47.202;15.258;2023-03-21T10:55:24;96089.97;;;15.26;43.83
29379;BME280;16362;47.202;15.258;2023-03-21T10:57:55;96095.19;;;15.07;43.48
29379;BME280;16362;47.202;15.258;2023-03-21T11:00:25;96094.34;;;15.13;43.10
29379;BME280;16362;47.202;15.258;2023-03-21T11:02:52;96087.06;;;15.34;43.82
29379;BME280;16362;47.202;15.258;2023-03-21T11:05:26;96080.63;;;15.55;44.05
29379;BME280;16362;47.202;15.258;2023-03-21T11:07:59;96075.41;;;15.87;42.46
29379;BME280;16362;47.202;15.258;2023-03-21T11:10:32;96072.44;;;16.09;42.39
29379;BME280;16362;47.202;15.258;2023-03-21T11:13:04;96072.34;;;16.22;41.92
29379;BME280;16362;47.202;15.258;2023-03-21T11:17:58;96062.56;;;16.35;40.76
29379;BME280;16362;47.202;15.258;2023-03-21T11:20:28;96060.69;;;16.67;40.42
29379;BME280;16362;47.202;15.258;2023-03-21T11:22:56;96053.69;;;16.91;40.20
29379;BME280;16362;47.202;15.258;2023-03-21T11:25:34;96056.91;;;17.07;38.59
29379;BME280;16362;47.202;15.258;2023-03-21T11:28:07;96048.47;;;17.22;39.21
29379;BME280;16362;47.202;15.258;2023-03-21T11:30:34;96039.97;;;17.18;39.46
29379;BME280;16362;47.202;15.258;2023-03-21T11:33:01;96042.03;;;17.23;38.59
29379;BME280;16362;47.202;15.258;2023-03-21T11:35:32;96049.25;;;16.72;39.10
29379;BME280;16362;47.202;15.258;2023-03-21T11:38:00;96041.06;;;16.28;39.90
29379;BME280;16362;47.202;15.258;2023-03-21T11:40:27;96044.09;;;15.99;41.94
29379;BME280;16362;47.202;15.258;2023-03-21T11:42:55;96041.47;;;15.86;41.37
29379;BME280;16362;47.202;15.258;2023-03-21T11:45:28;96038.97;;;15.91;42.09
29379;BME280;16362;47.202;15.258;2023-03-21T11:47:59;96037.25;;;16.04;41.62
29379;BME280;16362;47.202;15.258;2023-03-21T11:50:28;96022.91;;;16.48;40.57
29379;BME280;16362;47.202;15.258;2023-03-21T11:58:19;96013.81;;;16.43;40.43
29379;BME280;16362;47.202;15.258;2023-03-21T12:03:38;96010.19;;;16.56;40.86
29379;BME280;16362;47.202;15.258;2023-03-21T12:06:25;96005.75;;;16.68;39.08
29379;BME280;16362;47.202;15.258;2023-03-21T12:09:00;95999.41;;;16.30;40.34
29379;BME280;16362;47.202;15.258;2023-03-21T12:11:40;95999.59;;;16.61;39.43
29379;BME280;16362;47.202;15.258;2023-03-21T12:22:47;96001.84;;;16.39;41.61
29379;BME280;16362;47.202;15.258;2023-03-21T12:25:21;96008.38;;;16.17;41.43
29379;BME280;16362;47.202;15.258;2023-03-21T12:43:45;95979.25;;;16.08;41.97
29379;BME280;16362;47.202;15.258;2023-03-21T12:46:15;95981.75;;;16.03;41.00
29379;BME280;16362;47.202;15.258;2023-03-21T12:51:17;95973.34;;;15.79;41.78
29379;BME280;16362;47.202;15.258;2023-03-21T12:54:05;95970.47;;;15.87;42.86
29379;BME280;16362;47.202;15.258;2023-03-21T12:59:19;95956.63;;;16.15;42.18
29379;BME280;16362;47.202;15.258;2023-03-21T13:01:49;95955.75;;;16.22;41.84
29379;BME280;16362;47.202;15.258;2023-03-21T13:04:32;95950.81;;;16.19;40.73
29379;BME280;16362;47.202;15.258;2023-03-21T13:07:02;95949.38;;;16.16;40.96
29379;BME280;16362;47.202;15.258;2023-03-21T13:09:33;95949.97;;;16.18;42.94
29379;BME280;16362;47.202;15.258;2023-03-21T13:12:16;95941.47;;;16.21;41.71
29379;BME280;16362;47.202;15.258;2023-03-21T13:14:53;95934.53;;;16.39;41.48
29379;BME280;16362;47.202;15.258;2023-03-21T13:17:23;95940.38;;;16.29;42.39
29379;BME280;16362;47.202;15.258;2023-03-21T13:19:55;95931.94;;;16.25;41.44
29379;BME280;16362;47.202;15.258;2023-03-21T13:22:25;95936.41;;;16.31;42.48
29379;BME280;16362;47.202;15.258;2023-03-21T13:25:03;95937.31;;;16.25;40.63
29379;BME280;16362;47.202;15.258;2023-03-21T13:30:01;95925.22;;;16.35;40.68
29379;BME280;16362;47.202;15.258;2023-03-21T13:35:15;95928.44;;;16.18;41.15
29379;BME280;16362;47.202;15.258;2023-03-21T13:37:51;95920.03;;;16.08;41.27
29379;BME280;16362;47.202;15.258;2023-03-21T13:40:33;95920.22;;;16.13;41.90
29379;BME280;16362;47.202;15.258;2023-03-21T13:43:00;95913.78;;;16.14;42.11
29379;BME280;16362;47.202;15.258;2023-03-21T13:45:33;95905.06;;;16.19;41.35
29379;BME280;16362;47.202;15.258;2023-03-21T13:51:04;95912.50;;;16.16;42.96
29379;BME280;16362;47.202;15.258;2023-03-21T13:53:32;95908.13;;;16.22;42.80
29379;BME280;16362;47.202;15.258;2023-03-21T13:56:20;95895.72;;;16.21;42.75
29379;BME280;16362;47.202;15.258;2023-03-21T14:06:56;95893.50;;;16.37;41.95
29379;BME280;16362;47.202;15.258;2023-03-21T14:09:25;95887.69;;;16.40;43.72
29379;BME280;16362;47.202;15.258;2023-03-21T14:11:54;95888.22;;;16.23;42.22
29379;BME280;16362;47.202;15.258;2023-03-21T14:14:34;95880.84;;;16.37;42.25
29379;BME280;16362;47.202;15.258;2023-03-21T14:17:10;95874.38;;;16.45;43.68
29379;BME280;16362;47.202;15.258;2023-03-21T14:19:36;95875.41;;;16.44;42.64
29379;BME280;16362;47.202;15.258;2023-03-21T14:22:08;95872.72;;;16.44;42.16
29379;BME280;16362;47.202;15.258;2023-03-21T14:24:35;95867.19;;;16.39;42.50
29379;BME280;16362;47.202;15.258;2023-03-21T14:27:01;95880.50;;;16.33;42.48
29379;BME280;16362;47.202;15.258;2023-03-21T14:29:33;95878.38;;;16.36;42.71
29379;BME280;16362;47.202;15.258;2023-03-21T14:32:00;95871.16;;;16.36;42.89
29379;BME280;16362;47.202;15.258;2023-03-21T14:34:28;95871.81;;;16.31;42.77
29379;BME280;16362;47.202;15.258;2023-03-21T14:36:56;95873.00;;;16.36;41.50
29379;BME280;16362;47.202;15.258;2023-03-21T14:39:30;95875.13;;;16.33;42.17
29379;BME280;16362;47.202;15.258;2023-03-21T14:42:04;95871.81;;;16.31;41.55
29379;BME280;16362;47.202;15.258;2023-03-21T14:44:41;95872.25;;;16.28;42.20
29379;BME280;16362;47.202;15.258;2023-03-21T14:47:27;95874.66;;;16.37;41.06
29379;BME280;16362;47.202;15.258;2023-03-21T14:49:54;95864.00;;;16.23;41.43
29379;BME280;16362;47.202;15.258;2023-03-21T14:54:48;95866.03;;;16.03;42.42
29379;BME280;16362;47.202;15.258;2023-03-21T14:57:28;95866.25;;;16.01;42.77
29379;BME280;16362;47.202;15.258;2023-03-21T14:59:57;95860.25;;;15.99;42.77
29379;BME280;16362;47.202;15.258;2023-03-21T15:02:27;95863.84;;;15.93;43.63
29379;BME280;16362;47.202;15.258;2023-03-21T15:04:55;95859.13;;;16.13;42.65
29379;BME280;16362;47.202;15.258;2023-03-21T15:07:27;95863.25;;;16.16;42.98
29379;BME280;16362;47.202;15.258;2023-03-21T15:09:56;95857.69;;;16.11;42.71
29379;BME280;16362;47.202;15.258;2023-03-21T15:12:23;95864.34;;;16.08;42.78